Time;durP1;ratioP1;P1;durP2;ratioP2;P2;SDS_P1;SDS_P2;PMS_P1;PMS_P2;Temp;Humidity;BMP_temperature;BMP_pressure;BME280_temperature;BME280_humidity;BME280_pressure;Samples;Min_cycle;Max_cycle;Signal;HPM_P1;HPM_P2
2023/05/11 00:02:06;;;;;;;2.57;2.20;;;;;;;12.28;63.71;97656.91;6131350;28;20261;-47
2023/05/11 00:05:09;;;;;;;3.70;2.30;;;;;;;12.25;63.90;97647.50;6139151;28;20608;-50
2023/05/11 00:08:12;;;;;;;3.60;2.00;;;;;;;12.22;64.45;97645.38;6140010;28;20232;-47
2023/05/11 00:11:17;;;;;;;4.30;2.13;;;;;;;12.19;64.94;97647.72;6141748;28;20263;-46
2023/05/11 00:14:19;;;;;;;3.80;2.20;;;;;;;12.17;64.36;97647.16;6147907;28;20225;-46
2023/05/11 00:17:22;;;;;;;4.00;2.30;;;;;;;12.12;64.58;97645.28;6142999;28;20229;-47
2023/05/11 00:20:24;;;;;;;2.67;2.10;;;;;;;12.10;64.96;97652.72;6141658;28;20242;-48
2023/05/11 00:23:26;;;;;;;6.07;2.10;;;;;;;12.07;64.55;97640.69;6141249;28;20239;-48
2023/05/11 00:26:28;;;;;;;2.67;2.20;;;;;;;12.02;65.98;97642.47;6143827;28;20239;-46
2023/05/11 00:29:30;;;;;;;4.30;2.27;;;;;;;11.95;66.58;97645.34;6143740;28;20241;-47
2023/05/11 00:32:33;;;;;;;3.83;2.30;;;;;;;11.95;65.27;97641.88;6141529;28;20249;-46
2023/05/11 00:35:35;;;;;;;3.77;2.00;;;;;;;11.95;65.01;97642.69;6130748;28;20242;-47
2023/05/11 00:38:40;;;;;;;3.97;2.13;;;;;;;11.97;64.75;97637.09;6122435;28;20234;-52
2023/05/11 00:41:42;;;;;;;4.47;2.20;;;;;;;11.96;65.23;97636.28;6134942;28;20230;-51
2023/05/11 00:44:44;;;;;;;4.73;2.10;;;;;;;11.96;64.11;97633.59;6135363;28;20252;-48
2023/05/11 00:47:47;;;;;;;2.43;1.93;;;;;;;11.89;64.59;97627.69;6142609;28;20326;-49
2023/05/11 00:50:49;;;;;;;2.20;1.97;;;;;;;11.96;64.56;97635.47;6147906;28;20234;-49
2023/05/11 00:53:51;;;;;;;3.33;2.27;;;;;;;11.93;64.63;97638.66;6137736;28;20238;-47
2023/05/11 00:56:53;;;;;;;2.30;2.10;;;;;;;11.94;65.46;97646.41;6162601;28;20233;-48
2023/05/11 00:59:56;;;;;;;3.90;2.40;;;;;;;11.91;65.01;97643.44;6144569;28;20713;-53
2023/05/11 01:03:00;;;;;;;4.13;2.20;;;;;;;11.88;64.83;97636.75;6161652;28;20227;-48
2023/05/11 01:06:43;;;;;;;4.00;2.03;;;;;;;11.87;65.67;97640.44;6146201;28;20226;-47
2023/05/11 01:10:04;;;;;;;5.53;2.03;;;;;;;11.84;65.18;97638.28;6145642;28;20240;-49
2023/05/11 01:13:31;;;;;;;3.10;2.43;;;;;;;11.82;65.56;97632.38;6146446;28;20246;-46
2023/05/11 01:16:38;;;;;;;2.40;2.20;;;;;;;11.82;65.05;97635.06;6125878;28;20577;-49
2023/05/11 01:19:56;;;;;;;2.53;2.10;;;;;;;11.80;65.21;97627.28;6133355;28;20242;-46
2023/05/11 01:23:33;;;;;;;3.77;2.00;;;;;;;11.80;64.85;97632.63;6134381;28;20227;-52
2023/05/11 01:26:52;;;;;;;3.10;2.10;;;;;;;11.76;64.41;97631.50;6145998;28;20238;-47
2023/05/11 01:30:32;;;;;;;6.33;2.67;;;;;;;11.78;64.12;97631.28;6159978;28;20317;-48
2023/05/11 01:33:38;;;;;;;2.30;2.00;;;;;;;11.72;64.66;97633.03;6147917;28;20230;-50
2023/05/11 01:36:52;;;;;;;3.27;2.43;;;;;;;11.70;65.04;97624.50;6145197;28;20249;-50
2023/05/11 01:39:58;;;;;;;5.43;2.30;;;;;;;11.59;65.53;97628.91;6146157;28;20234;-48
2023/05/11 01:43:04;;;;;;;2.40;2.20;;;;;;;11.54;66.67;97634.19;6158952;28;20728;-47
2023/05/11 01:46:09;;;;;;;3.97;2.30;;;;;;;11.52;66.24;97633.63;6146985;28;20335;-52
2023/05/11 01:49:14;;;;;;;2.93;2.20;;;;;;;11.50;66.76;97633.06;6133039;28;20248;-51
2023/05/11 01:52:18;;;;;;;4.93;2.30;;;;;;;11.46;66.50;97631.16;6133833;28;20242;-52
2023/05/11 01:55:22;;;;;;;2.80;2.10;;;;;;;11.48;66.46;97643.19;6126155;28;20246;-46
2023/05/11 01:58:27;;;;;;;4.07;2.47;;;;;;;11.47;66.39;97638.91;6142353;28;20655;-47
2023/05/11 02:01:31;;;;;;;4.17;2.20;;;;;;;11.51;65.81;97640.03;6144263;28;20769;-50
2023/05/11 02:04:35;;;;;;;4.93;2.40;;;;;;;11.46;66.71;97647.16;6129389;28;20245;-53
2023/05/11 02:07:41;;;;;;;5.20;2.70;;;;;;;11.42;67.04;97640.69;6138009;28;20328;-51
2023/05/11 02:10:45;;;;;;;4.03;2.23;;;;;;;11.40;66.57;97645.50;6128808;28;20766;-49
2023/05/11 02:13:50;;;;;;;4.30;2.40;;;;;;;11.37;66.96;97633.44;6134877;28;20272;-46
2023/05/11 02:16:55;;;;;;;8.80;2.40;;;;;;;11.33;67.57;97646.47;6144146;28;20235;-48
2023/05/11 02:20:00;;;;;;;3.77;2.43;;;;;;;11.27;67.59;97647.44;6129240;28;20785;-49
2023/05/11 02:23:05;;;;;;;3.50;2.10;;;;;;;11.28;67.56;97645.59;6142691;28;20709;-51
2023/05/11 02:26:09;;;;;;;4.03;2.20;;;;;;;11.26;67.54;97650.38;6146878;28;20256;-50
2023/05/11 02:29:12;;;;;;;3.93;2.60;;;;;;;11.16;69.39;97648.38;6142260;28;20238;-49
2023/05/11 02:32:20;;;;;;;3.27;2.20;;;;;;;11.08;69.19;97640.78;6145427;28;20221;-47
2023/05/11 02:35:27;;;;;;;4.50;2.30;;;;;;;11.08;68.99;97646.13;6143855;28;20270;-49
2023/05/11 02:38:33;;;;;;;3.60;2.23;;;;;;;11.07;68.89;97647.19;6145735;28;20236;-52
2023/05/11 02:41:45;;;;;;;2.30;2.10;;;;;;;11.02;69.60;97641.78;6126504;28;20238;-50
2023/05/11 02:45:07;;;;;;;2.47;2.20;;;;;;;10.99;69.90;97647.63;6134853;28;20242;-48
2023/05/11 02:48:20;;;;;;;4.40;2.07;;;;;;;10.97;69.58;97642.50;6127587;28;20333;-50
2023/05/11 02:51:37;;;;;;;2.60;2.40;;;;;;;10.92;69.99;97645.09;6118779;28;20225;-51
2023/05/11 02:54:41;;;;;;;3.00;2.47;;;;;;;10.93;70.08;97648.56;6125492;28;20262;-48
2023/05/11 02:57:44;;;;;;;3.10;2.40;;;;;;;10.92;69.63;97649.63;6131263;28;20236;-51
2023/05/11 03:00:47;;;;;;;2.17;2.07;;;;;;;10.93;69.70;97645.91;6126463;28;20233;-47
2023/05/11 03:03:50;;;;;;;3.03;2.73;;;;;;;10.92;70.12;97655.75;6143414;28;20381;-49
2023/05/11 03:06:52;;;;;;;2.87;2.40;;;;;;;10.87;70.38;97653.03;6144888;28;20237;-52
2023/05/11 03:09:55;;;;;;;3.37;2.50;;;;;;;10.81;71.05;97649.47;6128684;28;20248;-51
2023/05/11 03:12:58;;;;;;;2.33;2.13;;;;;;;10.79;70.75;97650.78;6121246;28;20335;-50
2023/05/11 03:16:01;;;;;;;2.90;2.60;;;;;;;10.75;71.41;97649.66;6161139;28;20242;-52
2023/05/11 03:19:07;;;;;;;2.50;2.30;;;;;;;10.73;71.27;97651.75;6160081;28;20616;-47
2023/05/11 03:22:10;;;;;;;3.60;2.47;;;;;;;10.71;71.71;97652.00;6134733;28;20263;-49
2023/05/11 03:25:15;;;;;;;3.37;2.17;;;;;;;10.72;71.32;97647.47;6142288;28;20312;-52
2023/05/11 03:28:21;;;;;;;2.20;2.00;;;;;;;10.67;71.87;97642.88;6144071;28;20655;-51
2023/05/11 03:31:34;;;;;;;2.53;2.30;;;;;;;10.62;72.31;97641.97;6142610;28;20759;-48
2023/05/11 03:34:37;;;;;;;2.67;2.47;;;;;;;10.58;72.07;97647.78;6134196;28;20249;-52
2023/05/11 03:37:41;;;;;;;3.17;2.50;;;;;;;10.59;72.13;97638.78;6126919;28;20247;-50
2023/05/11 03:40:45;;;;;;;2.70;2.37;;;;;;;10.59;72.61;97643.28;6135211;28;20237;-52
2023/05/11 03:43:51;;;;;;;2.70;2.30;;;;;;;10.57;71.89;97642.72;6143193;28;20933;-52
2023/05/11 03:46:56;;;;;;;4.17;2.60;;;;;;;10.56;71.75;97639.25;6142025;28;20240;-52
2023/05/11 03:50:00;;;;;;;3.23;2.70;;;;;;;10.48;72.35;97625.50;6129135;28;20260;-51
2023/05/11 03:53:03;;;;;;;4.87;2.80;;;;;;;10.57;72.09;97642.72;6142985;28;20673;-52
2023/05/11 03:56:06;;;;;;;2.90;2.30;;;;;;;10.57;71.67;97630.19;6134481;28;20230;-52
2023/05/11 03:59:12;;;;;;;3.60;2.63;;;;;;;10.59;72.42;97638.78;6142093;28;20310;-52
2023/05/11 04:02:14;;;;;;;2.80;2.40;;;;;;;10.51;72.26;97623.19;6133996;28;20245;-52
2023/05/11 04:05:18;;;;;;;3.30;2.60;;;;;;;10.61;72.61;97635.03;6143059;28;20233;-51
2023/05/11 04:08:21;;;;;;;3.07;2.40;;;;;;;10.58;72.33;97642.47;6126804;28;20802;-51
2023/05/11 04:11:23;;;;;;;4.33;2.30;;;;;;;10.57;72.62;97651.50;6134004;28;20237;-51
2023/05/11 04:14:25;;;;;;;2.73;2.53;;;;;;;10.56;71.97;97644.56;6127871;28;20232;-51
2023/05/11 04:17:28;;;;;;;3.10;2.60;;;;;;;10.58;72.53;97644.31;6134654;28;20296;-47
2023/05/11 04:20:30;;;;;;;2.50;2.30;;;;;;;10.57;73.29;97640.84;6143817;28;20267;-48
2023/05/11 04:23:33;;;;;;;4.27;2.70;;;;;;;10.62;73.31;97647.31;6133150;28;20248;-46
2023/05/11 04:26:35;;;;;;;3.53;2.70;;;;;;;10.62;73.20;97648.13;6148280;28;20245;-47
2023/05/11 04:29:38;;;;;;;3.90;2.50;;;;;;;10.68;72.59;97652.47;6138806;28;20459;-47
2023/05/11 04:32:40;;;;;;;3.30;2.13;;;;;;;10.71;71.58;97646.66;6146707;28;20241;-48
2023/05/11 04:35:43;;;;;;;3.97;2.70;;;;;;;10.82;71.11;97659.09;6163180;28;20259;-46
2023/05/11 04:38:46;;;;;;;3.17;2.27;;;;;;;10.91;71.10;97662.16;6146115;28;20417;-48
2023/05/11 04:41:49;;;;;;;2.20;2.00;;;;;;;10.96;71.42;97662.22;6130257;28;20237;-46
2023/05/11 04:44:55;;;;;;;2.40;2.20;;;;;;;11.03;71.23;97660.22;6134713;28;20242;-47
2023/05/11 04:47:57;;;;;;;2.60;2.27;;;;;;;11.07;70.81;97661.31;6148995;28;20237;-47
2023/05/11 04:51:03;;;;;;;3.57;2.60;;;;;;;11.14;71.09;97661.16;6134433;28;20323;-47
2023/05/11 04:54:06;;;;;;;3.50;2.50;;;;;;;11.20;69.81;97662.03;6136558;28;20247;-48
2023/05/11 04:57:08;;;;;;;3.70;2.40;;;;;;;11.28;69.40;97662.41;6128221;28;20230;-46
2023/05/11 05:00:11;;;;;;;2.13;1.93;;;;;;;11.35;68.80;97662.22;6128679;28;20708;-47
2023/05/11 05:03:13;;;;;;;4.20;2.50;;;;;;;11.41;68.02;97671.09;6148139;28;20241;-47
2023/05/11 05:06:16;;;;;;;4.60;3.00;;;;;;;11.42;65.27;97665.50;6128718;28;20213;-48
2023/05/11 05:09:18;;;;;;;3.27;2.50;;;;;;;11.47;66.36;97670.09;6148703;28;20226;-46
2023/05/11 05:12:20;;;;;;;4.53;3.00;;;;;;;11.49;65.17;97660.81;6151771;28;20216;-47
2023/05/11 05:15:22;;;;;;;4.07;2.40;;;;;;;11.50;65.18;97672.28;6152186;28;20226;-46
2023/05/11 05:18:24;;;;;;;2.27;2.07;;;;;;;11.55;65.23;97677.69;6144611;28;20241;-46
2023/05/11 05:21:28;;;;;;;2.90;2.30;;;;;;;11.60;65.83;97670.56;6144306;28;20716;-50
2023/05/11 05:24:30;;;;;;;3.17;2.50;;;;;;;11.61;65.85;97672.16;6136760;28;20238;-46
2023/05/11 05:27:33;;;;;;;3.33;2.30;;;;;;;11.66;66.31;97678.63;6133638;28;20229;-46
2023/05/11 05:30:39;;;;;;;2.43;2.23;;;;;;;11.69;66.80;97670.13;6137945;28;20227;-46
2023/05/11 05:33:42;;;;;;;3.50;2.73;;;;;;;11.79;65.84;97678.25;6128725;28;20229;-47
2023/05/11 05:36:45;;;;;;;4.77;2.80;;;;;;;11.82;66.24;97677.75;6136708;28;20599;-46
2023/05/11 05:39:47;;;;;;;4.50;3.40;;;;;;;11.80;64.65;97671.84;6137059;28;20373;-47
2023/05/11 05:42:50;;;;;;;6.43;2.70;;;;;;;11.90;64.95;97681.88;6131677;28;20239;-52
2023/05/11 05:45:55;;;;;;;5.60;3.03;;;;;;;11.87;64.75;97677.81;6136297;28;20254;-46
2023/05/11 05:49:00;;;;;;;6.37;3.23;;;;;;;11.92;64.31;97683.25;6129461;28;20241;-47
2023/05/11 05:52:04;;;;;;;3.70;3.20;;;;;;;12.01;65.18;97688.91;6127256;28;20705;-46
2023/05/11 05:55:06;;;;;;;5.23;3.37;;;;;;;12.05;64.95;97688.16;6158679;28;20230;-46
2023/05/11 05:58:09;;;;;;;4.17;3.03;;;;;;;11.99;64.22;97694.53;6145506;28;20340;-49
2023/05/11 06:01:11;;;;;;;3.40;3.10;;;;;;;12.05;64.29;97687.38;6142727;28;20301;-46
2023/05/11 06:04:13;;;;;;;5.60;3.30;;;;;;;12.16;64.94;97697.09;6145976;28;20592;-46
2023/05/11 06:07:16;;;;;;;4.00;3.07;;;;;;;12.26;63.38;97699.88;6131176;28;20245;-47
2023/05/11 06:10:18;;;;;;;4.50;3.33;;;;;;;12.24;62.50;97693.97;6125067;28;20289;-47
2023/05/11 06:13:21;;;;;;;3.90;2.90;;;;;;;12.31;63.16;97691.09;6122781;28;20262;-46
2023/05/11 06:16:26;;;;;;;4.43;3.70;;;;;;;12.35;62.86;97698.34;6147263;28;20711;-48
2023/05/11 06:19:29;;;;;;;5.23;3.13;;;;;;;12.34;62.12;97701.28;6143462;28;20246;-48
2023/05/11 06:22:34;;;;;;;5.37;3.37;;;;;;;12.48;61.14;97693.69;6160062;28;20238;-47
2023/05/11 06:25:38;;;;;;;3.80;3.50;;;;;;;12.36;61.00;97688.47;6134906;28;20238;-46
2023/05/11 06:28:41;;;;;;;3.90;2.80;;;;;;;12.54;60.96;97701.47;6158320;28;20728;-46
2023/05/11 06:31:51;;;;;;;4.47;3.53;;;;;;;12.46;61.43;97704.59;6135125;28;20371;-49
2023/05/11 06:34:55;;;;;;;5.03;3.10;;;;;;;12.53;62.35;97710.56;6135369;28;20604;-47
2023/05/11 06:37:58;;;;;;;4.97;3.57;;;;;;;12.50;61.33;97704.91;6151328;28;20301;-49
2023/05/11 06:41:00;;;;;;;4.17;3.67;;;;;;;12.53;61.55;97709.75;6126746;28;20284;-48
2023/05/11 06:44:02;;;;;;;5.13;3.43;;;;;;;12.63;61.49;97701.81;6134980;28;20256;-46
2023/05/11 06:47:10;;;;;;;7.53;3.53;;;;;;;12.73;61.29;97711.81;6158224;28;20751;-50
2023/05/11 06:50:12;;;;;;;6.93;3.73;;;;;;;12.90;60.34;97712.47;6135699;28;20275;-50
2023/05/11 06:53:16;;;;;;;6.13;3.70;;;;;;;12.85;60.76;97707.06;6142792;28;20296;-51
2023/05/11 06:56:18;;;;;;;3.93;3.27;;;;;;;12.96;61.08;97711.47;6144617;28;20238;-46
2023/05/11 06:59:21;;;;;;;5.70;3.77;;;;;;;12.92;60.40;97705.00;6144518;28;20714;-47
2023/05/11 07:02:24;;;;;;;5.43;3.60;;;;;;;12.95;60.96;97706.34;6124679;28;20230;-48
2023/05/11 07:05:26;;;;;;;5.97;3.37;;;;;;;13.00;60.40;97698.34;6144881;28;20237;-48
2023/05/11 07:08:28;;;;;;;3.47;3.17;;;;;;;12.99;61.19;97697.56;6141557;28;20240;-51
2023/05/11 07:11:31;;;;;;;4.37;3.43;;;;;;;13.14;60.34;97689.63;6142303;28;20249;-50
2023/05/11 07:14:33;;;;;;;4.30;3.87;;;;;;;13.25;60.48;97695.06;6147214;28;20232;-47
2023/05/11 07:17:35;;;;;;;4.30;3.10;;;;;;;13.24;60.62;97696.16;6144463;28;20246;-45
2023/05/11 07:20:38;;;;;;;4.10;3.23;;;;;;;13.32;59.89;97687.66;6143726;28;20245;-48
2023/05/11 07:23:41;;;;;;;5.13;3.10;;;;;;;13.38;60.06;97686.59;6141902;28;20234;-47
2023/05/11 07:26:43;;;;;;;4.27;3.00;;;;;;;13.42;58.95;97687.69;6142964;28;20676;-47
2023/05/11 07:29:46;;;;;;;4.53;3.43;;;;;;;13.49;58.80;97695.47;6143916;28;20639;-50
2023/05/11 07:32:48;;;;;;;4.87;3.20;;;;;;;13.56;58.24;97688.84;6143955;28;20233;-48
2023/05/11 07:35:51;;;;;;;5.57;3.43;;;;;;;13.51;57.54;97680.78;6141424;28;20327;-48
2023/05/11 07:38:53;;;;;;;3.20;2.90;;;;;;;13.62;58.34;97692.34;6141936;28;20624;-47
2023/05/11 07:41:56;;;;;;;4.67;3.40;;;;;;;13.77;57.64;97691.59;6143804;28;20277;-52
2023/05/11 07:44:58;;;;;;;6.70;3.07;;;;;;;13.78;59.50;97691.34;6143441;28;20233;-50
2023/05/11 07:48:00;;;;;;;3.07;2.77;;;;;;;13.88;55.91;97685.22;6141732;28;20242;-47
2023/05/11 07:51:02;;;;;;;3.47;2.87;;;;;;;13.84;56.62;97686.81;6133307;28;20254;-50
2023/05/11 07:54:04;;;;;;;3.37;3.07;;;;;;;13.91;56.64;97693.53;6141917;28;20227;-46
2023/05/11 07:57:07;;;;;;;3.40;2.93;;;;;;;14.00;56.76;97680.44;6146022;28;20237;-49
2023/05/11 08:00:10;;;;;;;3.13;2.70;;;;;;;14.09;57.02;97691.47;6148988;28;20237;-51
2023/05/11 08:03:13;;;;;;;4.30;3.03;;;;;;;14.25;56.99;97689.63;6145994;28;20249;-50
2023/05/11 08:06:15;;;;;;;3.37;2.60;;;;;;;14.43;57.28;97699.81;6148605;28;20221;-49
2023/05/11 08:09:18;;;;;;;4.77;3.00;;;;;;;14.55;54.56;97692.38;6146783;28;20714;-48
2023/05/11 08:12:20;;;;;;;4.87;2.50;;;;;;;14.59;54.60;97698.00;6146413;28;20313;-47
2023/05/11 08:15:22;;;;;;;4.83;2.63;;;;;;;14.45;53.68;97690.44;6152720;28;20317;-48
2023/05/11 08:18:24;;;;;;;5.07;2.93;;;;;;;14.54;54.25;97693.44;6148197;28;20237;-53
2023/05/11 08:21:26;;;;;;;3.97;2.93;;;;;;;14.48;54.31;97696.38;6144454;28;20313;-51
2023/05/11 08:24:28;;;;;;;3.40;3.00;;;;;;;14.58;56.76;97699.06;6148412;28;20237;-50
2023/05/11 08:27:30;;;;;;;3.80;2.90;;;;;;;14.78;54.24;97700.94;6148910;28;20242;-52
2023/05/11 08:30:33;;;;;;;3.53;3.23;;;;;;;14.89;52.45;97699.91;6144497;28;20300;-48
2023/05/11 08:33:35;;;;;;;5.57;3.07;;;;;;;14.89;52.69;97691.84;6146368;28;20234;-48
2023/05/11 08:36:39;;;;;;;4.20;2.80;;;;;;;14.78;53.36;97690.22;6144863;28;20328;-51
2023/05/11 08:39:41;;;;;;;4.40;3.20;;;;;;;14.86;53.92;97706.59;6146161;28;20607;-48
2023/05/11 08:42:52;;;;;;;4.57;3.07;;;;;;;15.07;52.29;97688.59;6162992;28;20283;-50
2023/05/11 08:45:59;;;;;;;3.83;2.73;;;;;;;15.06;54.74;97688.88;6146717;28;20246;-48
2023/05/11 08:49:02;;;;;;;3.73;3.07;;;;;;;15.00;54.38;97689.94;6145248;28;20296;-46
2023/05/11 08:52:05;;;;;;;3.17;2.80;;;;;;;15.07;54.32;97696.63;6146776;28;20242;-50
2023/05/11 08:55:09;;;;;;;3.33;3.03;;;;;;;15.15;52.10;97693.41;6145163;28;20273;-49
2023/05/11 08:58:18;;;;;;;3.70;2.63;;;;;;;15.06;52.43;97686.19;6146866;28;20265;-51
2023/05/11 09:01:22;;;;;;;4.47;3.03;;;;;;;15.26;52.37;97679.97;6146177;28;20230;-50
2023/05/11 09:04:25;;;;;;;3.17;2.87;;;;;;;15.26;53.38;97682.66;6145741;28;20239;-48
2023/05/11 09:07:28;;;;;;;3.50;2.90;;;;;;;15.17;51.89;97679.72;6145293;28;20694;-49
2023/05/11 09:10:31;;;;;;;2.70;2.50;;;;;;;15.31;51.58;97666.53;6128190;28;20253;-50
2023/05/11 09:13:33;;;;;;;3.97;2.60;;;;;;;15.49;52.63;97669.44;6147001;28;20746;-49
2023/05/11 09:16:35;;;;;;;3.40;2.90;;;;;;;15.78;52.19;97681.47;6150064;28;20237;-52
2023/05/11 09:19:59;;;;;;;4.13;3.27;;;;;;;15.86;49.03;97670.13;6144406;28;20230;-49
2023/05/11 09:23:01;;;;;;;3.27;2.57;;;;;;;15.90;50.46;97673.88;6151222;28;20337;-50
2023/05/11 09:26:03;;;;;;;4.90;2.70;;;;;;;15.89;47.59;97670.41;6145608;28;20242;-51
2023/05/11 09:29:06;;;;;;;3.83;3.17;;;;;;;16.02;49.28;97660.94;6144778;28;20327;-51
2023/05/11 09:32:08;;;;;;;3.23;2.30;;;;;;;15.99;48.02;97667.66;6139363;28;20230;-51
2023/05/11 09:35:21;;;;;;;3.20;2.57;;;;;;;15.91;47.03;97662.03;6146077;28;20238;-52
2023/05/11 09:38:24;;;;;;;4.53;2.73;;;;;;;15.80;49.08;97690.03;6146179;28;20235;-47
2023/05/11 09:41:26;;;;;;;4.23;2.40;;;;;;;15.65;48.21;97677.47;6146911;28;20307;-50
2023/05/11 09:44:36;;;;;;;4.03;2.47;;;;;;;15.62;48.10;97659.22;6145041;28;20239;-48
2023/05/11 09:47:41;;;;;;;3.30;2.43;;;;;;;15.87;50.62;97675.25;6136618;28;20255;-51
2023/05/11 09:50:45;;;;;;;6.07;2.40;;;;;;;15.94;47.61;97646.19;6145577;28;20234;-50
2023/05/11 09:53:47;;;;;;;3.17;2.03;;;;;;;15.99;48.04;97651.53;6145840;28;20241;-53
2023/05/11 09:56:55;;;;;;;5.17;2.50;;;;;;;16.31;51.30;97649.47;6144835;28;20245;-53
2023/05/11 09:59:59;;;;;;;3.00;2.27;;;;;;;16.61;49.42;97643.06;6142840;28;20242;-51
2023/05/11 10:03:04;;;;;;;4.07;2.60;;;;;;;16.67;46.01;97655.38;6145564;28;20229;-52
2023/05/11 10:06:07;;;;;;;2.23;2.03;;;;;;;16.45;47.19;97637.81;6143305;28;20218;-51
2023/05/11 10:09:09;;;;;;;3.97;2.13;;;;;;;16.48;47.56;97634.53;6130879;28;20245;-52
2023/05/11 10:12:13;;;;;;;4.57;2.20;;;;;;;16.57;48.24;97634.75;6132979;28;20219;-52
2023/05/11 10:15:24;;;;;;;2.20;2.00;;;;;;;16.61;45.82;97630.44;6147082;28;20246;-49
2023/05/11 10:18:26;;;;;;;8.73;2.27;;;;;;;16.42;46.25;97630.31;6146154;28;20226;-51
2023/05/11 10:21:29;;;;;;;3.33;2.30;;;;;;;16.30;47.95;97634.41;6146533;28;20225;-51
2023/05/11 10:24:32;;;;;;;3.17;1.80;;;;;;;16.22;47.88;97617.81;6142309;28;20237;-53
2023/05/11 10:27:36;;;;;;;2.10;1.83;;;;;;;16.39;45.17;97620.09;6143278;28;20881;-50
2023/05/11 10:30:40;;;;;;;5.60;2.00;;;;;;;16.34;45.59;97611.25;6144380;28;20245;-51
2023/05/11 10:33:44;;;;;;;4.43;1.90;;;;;;;16.43;44.01;97618.44;6144616;28;20774;-52
2023/05/11 10:36:51;;;;;;;1.73;1.63;;;;;;;16.73;42.41;97609.34;6143797;28;20254;-47
2023/05/11 10:39:53;;;;;;;2.27;1.70;;;;;;;16.80;43.01;97616.28;6145353;28;20238;-47
2023/05/11 10:43:05;;;;;;;2.07;1.83;;;;;;;16.74;44.96;97612.84;6140553;28;20238;-47
2023/05/11 10:46:42;;;;;;;3.50;1.60;;;;;;;16.84;43.15;97611.94;6144740;28;20595;-48
2023/05/11 10:50:14;;;;;;;3.27;1.80;;;;;;;16.82;42.78;97614.13;6129476;29;20261;-46
2023/05/11 10:53:44;;;;;;;3.50;1.70;;;;;;;16.89;42.82;97601.94;6128658;29;20246;-46
2023/05/11 10:57:14;;;;;;;4.00;1.80;;;;;;;16.76;41.76;97610.69;6128076;29;20246;-47
2023/05/11 11:00:50;;;;;;;2.53;1.60;;;;;;;17.01;42.16;97601.56;6125632;29;20325;-47
2023/05/11 11:03:58;;;;;;;2.93;1.50;;;;;;;17.21;41.40;97595.16;6126930;28;20246;-46
2023/05/11 11:07:05;;;;;;;4.10;1.50;;;;;;;17.28;42.19;97591.00;6128237;29;20239;-51
2023/05/11 11:10:08;;;;;;;2.87;1.37;;;;;;;17.23;42.03;97587.59;6124169;29;20953;-50
2023/05/11 11:13:14;;;;;;;4.57;1.70;;;;;;;17.43;41.91;97586.53;6128467;29;20247;-48
2023/05/11 11:16:18;;;;;;;2.00;1.60;;;;;;;17.37;40.45;97576.94;6131282;28;20239;-48
2023/05/11 11:19:29;;;;;;;2.10;1.70;;;;;;;17.25;41.43;97585.41;6128446;29;20246;-46
2023/05/11 11:22:37;;;;;;;3.23;1.40;;;;;;;17.15;43.01;97570.19;6130502;28;20238;-50
2023/05/11 11:25:51;;;;;;;1.57;1.47;;;;;;;17.07;42.42;97560.03;6144415;28;20241;-47
2023/05/11 11:28:56;;;;;;;2.00;1.50;;;;;;;17.24;42.82;97581.94;6143752;28;20247;-49
2023/05/11 11:32:19;;;;;;;1.70;1.50;;;;;;;17.24;41.10;97578.41;6143564;28;21130;-47
2023/05/11 11:35:45;;;;;;;2.90;1.97;;;;;;;17.06;41.68;97579.19;6136244;28;20889;-48
2023/05/11 11:38:58;;;;;;;4.47;1.93;;;;;;;16.96;42.76;97574.72;6136146;28;20245;-46
2023/05/11 11:42:06;;;;;;;8.60;2.27;;;;;;;16.91;42.33;97575.56;6132797;28;20384;-46
2023/05/11 11:45:51;;;;;;;2.73;1.73;;;;;;;16.92;42.72;97579.84;6144248;28;20234;-49
2023/05/11 11:49:07;;;;;;;1.93;1.73;;;;;;;16.94;42.85;97576.84;6114385;28;20486;-48
2023/05/11 11:52:30;;;;;;;4.00;1.77;;;;;;;16.97;41.53;97566.34;6117580;29;20610;-46
2023/05/11 11:55:49;;;;;;;2.10;1.67;;;;;;;16.92;42.29;97574.47;6116735;28;20239;-47
2023/05/11 11:58:52;;;;;;;4.10;1.80;;;;;;;16.81;41.97;97589.13;6115255;29;20293;-47
2023/05/11 12:01:55;;;;;;;2.30;1.93;;;;;;;16.73;43.01;97565.50;6116658;28;20254;-46
2023/05/11 12:05:17;;;;;;;3.60;1.63;;;;;;;16.55;41.82;97574.25;6116010;29;20254;-46
2023/05/11 12:08:23;;;;;;;2.40;1.70;;;;;;;16.48;42.63;97567.31;6102037;28;20401;-44
2023/05/11 12:11:28;;;;;;;3.13;1.60;;;;;;;16.67;43.90;97577.38;6115024;29;20231;-45
2023/05/11 12:14:31;;;;;;;3.13;1.80;;;;;;;16.92;41.78;97579.03;6119344;28;20770;-46
2023/05/11 12:17:37;;;;;;;5.60;2.00;;;;;;;16.73;43.62;97558.25;6116909;29;20235;-46
2023/05/11 12:20:39;;;;;;;2.83;1.93;;;;;;;16.55;44.44;97567.00;6117559;29;20242;-44
2023/05/11 12:23:51;;;;;;;4.93;1.90;;;;;;;16.45;44.58;97567.91;6138680;28;20234;-45
2023/05/11 12:26:56;;;;;;;2.70;1.60;;;;;;;16.47;44.30;97559.53;6141421;28;20234;-47
2023/05/11 12:29:59;;;;;;;2.93;2.00;;;;;;;16.52;44.31;97546.84;6125571;28;20336;-46
2023/05/11 12:33:04;;;;;;;1.70;1.30;;;;;;;16.60;44.68;97556.22;6143085;28;20246;-46
2023/05/11 12:36:07;;;;;;;2.20;1.73;;;;;;;16.69;42.72;97551.00;6140370;28;20238;-47
2023/05/11 12:39:16;;;;;;;4.37;2.17;;;;;;;16.62;42.40;97561.28;6145931;28;20242;-45
2023/05/11 12:42:19;;;;;;;3.07;2.00;;;;;;;16.53;42.47;97544.97;6142889;28;20328;-46
2023/05/11 12:45:23;;;;;;;3.13;1.87;;;;;;;16.50;42.45;97549.03;6147445;28;20265;-45
2023/05/11 12:48:25;;;;;;;4.13;2.03;;;;;;;16.81;41.51;97550.66;6145144;28;20240;-47
2023/05/11 12:51:51;;;;;;;2.33;1.70;;;;;;;16.69;41.68;97551.00;6146772;28;20762;-45
2023/05/11 12:54:58;;;;;;;9.07;2.30;;;;;;;16.74;40.80;97534.81;6146218;28;20238;-45
2023/05/11 12:58:11;;;;;;;5.30;1.93;;;;;;;16.83;40.33;97532.31;6146705;28;20242;-45
2023/05/11 13:01:13;;;;;;;3.73;1.60;;;;;;;16.91;41.12;97535.19;6146769;28;20249;-46
2023/05/11 13:04:16;;;;;;;3.00;1.53;;;;;;;17.05;42.17;97532.63;6144490;28;20249;-46
2023/05/11 13:07:27;;;;;;;2.03;1.37;;;;;;;17.20;42.61;97528.94;6145022;28;20246;-49
2023/05/11 13:10:29;;;;;;;2.67;1.77;;;;;;;17.22;42.12;97511.41;6150788;28;20599;-45
2023/05/11 13:13:32;;;;;;;5.10;2.00;;;;;;;17.26;39.92;97520.50;6147548;28;20233;-47
2023/05/11 13:16:34;;;;;;;3.03;2.03;;;;;;;17.18;39.53;97510.38;6151465;28;20242;-46
2023/05/11 13:19:38;;;;;;;1.87;1.67;;;;;;;17.16;40.52;97517.94;6145170;28;20933;-50
2023/05/11 13:22:40;;;;;;;3.73;2.10;;;;;;;17.03;40.65;97513.25;6146836;28;20248;-47
2023/05/11 13:25:48;;;;;;;4.93;2.00;;;;;;;17.07;40.94;97508.91;6146856;28;20317;-47
2023/05/11 13:28:51;;;;;;;2.27;2.07;;;;;;;17.12;41.00;97514.22;6146398;28;20334;-44
2023/05/11 13:32:11;;;;;;;3.03;1.77;;;;;;;17.15;40.75;97510.16;6142874;28;20254;-48
2023/05/11 13:35:14;;;;;;;4.47;1.53;;;;;;;17.21;41.19;97509.81;6146172;28;20241;-49
2023/05/11 13:38:17;;;;;;;2.93;1.70;;;;;;;17.17;41.09;97516.84;6145373;28;20591;-46
2023/05/11 13:41:19;;;;;;;2.50;1.50;;;;;;;17.08;42.57;97507.81;6146256;28;20659;-44
2023/05/11 13:44:21;;;;;;;4.23;1.73;;;;;;;16.99;42.28;97513.03;6144800;28;20245;-45
2023/05/11 13:47:24;;;;;;;3.03;1.57;;;;;;;16.92;43.48;97509.88;6145980;28;20241;-44
2023/05/11 13:50:26;;;;;;;3.03;1.83;;;;;;;16.89;41.52;97501.56;6146444;28;20238;-48
2023/05/11 13:53:28;;;;;;;4.03;1.80;;;;;;;16.86;41.36;97504.84;6147322;28;20233;-49
2023/05/11 13:56:30;;;;;;;2.10;1.90;;;;;;;16.88;41.86;97502.66;6144522;28;20241;-51
2023/05/11 13:59:33;;;;;;;3.43;1.80;;;;;;;16.81;43.79;97500.34;6144769;28;20325;-51
2023/05/11 14:02:35;;;;;;;4.57;1.70;;;;;;;16.71;44.77;97503.09;6146051;28;20234;-47
2023/05/11 14:05:37;;;;;;;4.43;1.37;;;;;;;16.60;44.50;97499.72;6143343;28;20234;-47
2023/05/11 14:08:40;;;;;;;2.70;1.67;;;;;;;16.49;43.92;97495.50;6142765;28;20279;-49
2023/05/11 14:11:42;;;;;;;4.33;1.90;;;;;;;16.43;42.22;97485.91;6145873;28;20241;-49
2023/05/11 14:14:44;;;;;;;1.90;1.60;;;;;;;16.54;42.25;97492.78;6150093;28;20240;-52
2023/05/11 14:17:47;;;;;;;2.93;2.03;;;;;;;16.65;41.72;97486.22;6143748;28;20244;-48
2023/05/11 14:20:50;;;;;;;3.53;1.50;;;;;;;16.81;43.34;97486.88;6145643;28;20236;-48
2023/05/11 14:23:52;;;;;;;7.70;1.87;;;;;;;16.92;41.82;97482.97;6145454;28;20241;-48
2023/05/11 14:27:12;;;;;;;4.73;1.77;;;;;;;16.94;42.32;97482.69;6146203;28;20234;-51
2023/05/11 14:30:14;;;;;;;4.43;1.60;;;;;;;16.95;42.27;97501.25;6145067;28;20222;-51
2023/05/11 14:33:16;;;;;;;5.50;1.70;;;;;;;16.89;41.70;97480.84;6144508;28;20222;-51
2023/05/11 14:36:19;;;;;;;4.80;1.73;;;;;;;16.84;42.35;97483.59;6143690;28;20257;-48